Time;durP1;ratioP1;P1;durP2;ratioP2;P2;SDS_P1;SDS_P2;PMS_P1;PMS_P2;Temp;Humidity;BMP_temperature;BMP_pressure;BME280_temperature;BME280_humidity;BME280_pressure;Samples;Min_cycle;Max_cycle;Signal;HPM_P1;HPM_P2
2022/08/25 00:01:24;;;;;;;764.43;564.47;;;14.70;99.90;;;;;;4181366;28;20164;-73
2022/08/25 00:03:24;;;;;;;847.73;436.87;;;14.70;99.90;;;;;;4180230;28;20222;-73
2022/08/25 00:05:30;;;;;;;520.30;466.37;;;14.60;99.90;;;;;;4163314;28;20205;-74
2022/08/25 00:07:30;;;;;;;648.30;596.07;;;14.60;99.90;;;;;;4176986;28;20641;-74
2022/08/25 00:09:32;;;;;;;399.00;369.17;;;14.50;99.90;;;;;;4179596;28;20184;-73
2022/08/25 00:11:35;;;;;;;571.70;518.80;;;14.50;99.90;;;;;;4197509;28;20203;-73
2022/08/25 00:13:36;;;;;;;507.53;472.83;;;14.50;99.90;;;;;;4196882;28;20179;-74
2022/08/25 00:15:37;;;;;;;169.20;155.63;;;14.50;99.90;;;;;;4197411;28;20203;-74
2022/08/25 00:17:37;;;;;;;399.10;370.13;;;14.40;99.90;;;;;;4197294;28;20183;-73
2022/08/25 00:19:38;;;;;;;257.10;238.30;;;14.40;99.90;;;;;;4197237;28;20271;-74
2022/08/25 00:21:39;;;;;;;969.07;504.90;;;14.50;99.90;;;;;;4179423;28;20204;-73
2022/08/25 00:23:40;;;;;;;449.60;242.07;;;14.50;99.90;;;;;;4196723;28;20207;-73
2022/08/25 00:25:41;;;;;;;1175.17;666.37;;;14.50;99.90;;;;;;4197539;28;20662;-73
2022/08/25 00:27:42;;;;;;;571.20;517.47;;;14.60;99.90;;;;;;4179363;28;20195;-73
2022/08/25 00:29:43;;;;;;;917.20;688.87;;;14.60;99.90;;;;;;4197496;28;20196;-73
2022/08/25 00:31:44;;;;;;;797.20;716.27;;;14.60;99.90;;;;;;4197077;28;20215;-73
2022/08/25 00:33:46;;;;;;;538.57;438.13;;;14.60;99.90;;;;;;4196590;28;20175;-73
2022/08/25 00:35:47;;;;;;;378.37;355.33;;;14.60;99.90;;;;;;4197613;28;20183;-73
2022/08/25 00:37:48;;;;;;;668.43;438.63;;;14.50;99.90;;;;;;4179143;28;20616;-73
2022/08/25 00:39:48;;;;;;;923.63;487.00;;;14.50;99.90;;;;;;4197254;28;20180;-73
2022/08/25 00:41:51;;;;;;;418.07;384.93;;;14.40;99.90;;;;;;4179128;28;20176;-73
2022/08/25 00:43:59;;;;;;;658.47;601.47;;;14.30;99.90;;;;;;4178364;28;20188;-73
2022/08/25 00:46:00;;;;;;;654.53;461.47;;;14.30;99.90;;;;;;4196843;28;20174;-73
2022/08/25 00:48:01;;;;;;;799.33;592.20;;;14.20;99.90;;;;;;4197132;28;20775;-73
2022/08/25 00:50:05;;;;;;;583.67;493.57;;;14.20;99.90;;;;;;4179136;28;20696;-73
2022/08/25 00:52:20;;;;;;;472.00;423.50;;;14.20;99.90;;;;;;4196756;28;20624;-73
2022/08/25 00:54:26;;;;;;;311.30;285.80;;;14.20;99.90;;;;;;4196267;28;20195;-73
2022/08/25 00:56:28;;;;;;;410.20;378.33;;;14.10;99.90;;;;;;4196935;28;20783;-73
2022/08/25 00:58:32;;;;;;;615.70;559.97;;;14.10;99.90;;;;;;4196946;28;20180;-73
2022/08/25 01:00:37;;;;;;;404.17;378.60;;;14.00;99.90;;;;;;4196775;28;20180;-74
2022/08/25 01:02:39;;;;;;;451.23;414.40;;;14.00;99.90;;;;;;4196338;28;20222;-72
2022/08/25 01:04:41;;;;;;;498.87;457.30;;;14.00;99.90;;;;;;4193968;28;20834;-73
2022/08/25 01:06:45;;;;;;;468.37;423.80;;;13.90;99.90;;;;;;4178715;28;20658;-73
2022/08/25 01:08:46;;;;;;;369.50;346.03;;;13.80;99.90;;;;;;4196450;28;20648;-73
2022/08/25 01:10:48;;;;;;;446.93;392.73;;;13.70;99.90;;;;;;4196545;28;20183;-73
2022/08/25 01:12:51;;;;;;;1112.03;447.17;;;13.70;99.90;;;;;;4195761;28;20211;-72
2022/08/25 01:14:52;;;;;;;189.00;177.47;;;13.70;99.90;;;;;;4178407;28;20208;-73
2022/08/25 01:16:53;;;;;;;571.27;522.17;;;13.70;99.90;;;;;;4196195;28;20236;-72
2022/08/25 01:18:56;;;;;;;436.67;403.17;;;13.80;99.90;;;;;;4196520;28;20232;-73
2022/08/25 01:20:58;;;;;;;648.33;512.50;;;13.80;99.90;;;;;;4178696;28;20180;-73
2022/08/25 01:23:00;;;;;;;774.93;696.37;;;13.90;99.90;;;;;;4177637;28;20188;-73
2022/08/25 01:25:16;;;;;;;223.47;209.83;;;13.90;99.90;;;;;;4178359;28;20657;-73
2022/08/25 01:27:16;;;;;;;309.70;289.40;;;13.90;99.90;;;;;;4196362;28;20163;-72
2022/08/25 01:29:19;;;;;;;384.93;358.20;;;13.80;99.90;;;;;;4178017;28;20192;-73
2022/08/25 01:31:20;;;;;;;520.37;481.40;;;13.80;99.90;;;;;;4178091;28;20325;-73
2022/08/25 01:33:21;;;;;;;384.23;360.47;;;13.70;99.90;;;;;;4195285;28;20175;-73
2022/08/25 01:35:22;;;;;;;357.57;335.27;;;13.70;99.90;;;;;;4178342;28;20652;-73
2022/08/25 01:37:23;;;;;;;573.07;530.90;;;13.70;99.90;;;;;;4196045;28;20225;-73
2022/08/25 01:39:25;;;;;;;731.83;489.90;;;13.70;99.90;;;;;;4178187;28;20631;-72
2022/08/25 01:41:49;;;;;;;258.77;243.57;;;13.70;99.90;;;;;;4195789;28;20179;-73
2022/08/25 01:43:50;;;;;;;558.60;510.97;;;13.70;99.90;;;;;;4165371;28;20208;-73
2022/08/25 01:45:50;;;;;;;551.33;503.47;;;13.60;99.90;;;;;;4196190;28;20786;-73
2022/08/25 01:47:51;;;;;;;611.53;569.37;;;13.60;99.90;;;;;;4195912;28;20186;-72
2022/08/25 01:49:52;;;;;;;334.27;304.93;;;13.50;99.90;;;;;;4195840;28;20211;-72
2022/08/25 01:51:59;;;;;;;289.93;270.80;;;13.50;99.90;;;;;;4195652;28;20264;-72
2022/08/25 01:54:00;;;;;;;342.53;321.17;;;13.50;99.90;;;;;;4177626;28;20207;-73
2022/08/25 01:56:10;;;;;;;355.67;329.77;;;13.50;99.90;;;;;;4195835;28;20175;-72
2022/08/25 01:58:10;;;;;;;263.30;246.30;;;13.50;99.90;;;;;;4195607;28;20663;-72
2022/08/25 02:00:13;;;;;;;365.27;345.13;;;13.50;99.90;;;;;;4195812;28;20208;-72
2022/08/25 02:02:14;;;;;;;231.50;217.90;;;13.50;99.90;;;;;;4195590;28;20306;-72
2022/08/25 02:04:14;;;;;;;374.90;351.10;;;13.50;99.90;;;;;;4195273;28;20220;-72
2022/08/25 02:06:19;;;;;;;274.50;256.07;;;13.40;99.90;;;;;;4177777;28;20188;-72
2022/08/25 02:08:21;;;;;;;291.97;275.60;;;13.40;99.90;;;;;;4195757;28;20267;-72
2022/08/25 02:10:22;;;;;;;336.83;308.57;;;13.40;99.90;;;;;;4195754;28;20190;-72
2022/08/25 02:12:24;;;;;;;297.97;279.90;;;13.40;99.90;;;;;;4195426;28;20227;-72
2022/08/25 02:14:25;;;;;;;374.37;348.57;;;13.40;99.90;;;;;;4195368;28;20195;-72
2022/08/25 02:16:29;;;;;;;579.57;484.60;;;13.40;99.90;;;;;;4177438;28;20279;-72
2022/08/25 02:18:29;;;;;;;204.50;192.53;;;13.40;99.90;;;;;;4195344;28;20183;-72
2022/08/25 02:20:30;;;;;;;405.77;381.27;;;13.40;99.90;;;;;;4177849;28;20188;-72
2022/08/25 02:22:31;;;;;;;330.73;307.93;;;13.40;99.90;;;;;;4177757;28;20206;-72
2022/08/25 02:24:31;;;;;;;480.57;383.80;;;13.30;99.90;;;;;;4195306;28;20207;-72
2022/08/25 02:26:32;;;;;;;729.97;661.73;;;13.30;99.90;;;;;;4195550;28;20173;-72
2022/08/25 02:28:33;;;;;;;421.13;390.80;;;13.30;99.90;;;;;;4177632;28;20191;-72
2022/08/25 02:30:35;;;;;;;342.23;320.83;;;13.30;99.90;;;;;;4195587;28;20180;-72
2022/08/25 02:32:36;;;;;;;381.33;351.80;;;13.20;99.90;;;;;;4195327;28;20219;-72
2022/08/25 02:34:38;;;;;;;398.13;359.87;;;13.20;99.90;;;;;;4176857;28;20587;-72
2022/08/25 02:36:39;;;;;;;456.53;422.87;;;13.20;99.90;;;;;;4195565;28;20586;-72
2022/08/25 02:38:40;;;;;;;445.50;411.23;;;13.20;99.90;;;;;;4173066;28;20195;-72
2022/08/25 02:40:41;;;;;;;323.80;302.03;;;13.20;99.90;;;;;;4195000;28;20179;-72
2022/08/25 02:42:42;;;;;;;558.83;445.90;;;13.20;99.90;;;;;;4195538;28;20190;-72
2022/08/25 02:44:42;;;;;;;113.70;106.27;;;13.20;99.90;;;;;;4194789;28;20233;-71
2022/08/25 02:46:43;;;;;;;234.73;221.13;;;13.20;99.90;;;;;;4195400;28;20179;-72
2022/08/25 02:48:44;;;;;;;445.23;414.57;;;13.30;99.90;;;;;;4195568;28;20219;-71
2022/08/25 02:50:50;;;;;;;471.67;435.50;;;13.20;99.90;;;;;;4195360;28;20560;-72
2022/08/25 02:52:51;;;;;;;286.67;263.63;;;13.30;99.90;;;;;;4194766;28;20212;-72
2022/08/25 02:54:51;;;;;;;270.23;250.53;;;13.20;99.90;;;;;;4194250;28;20207;-71
2022/08/25 02:56:52;;;;;;;324.50;303.97;;;13.20;99.90;;;;;;4194795;28;20528;-71
2022/08/25 02:58:53;;;;;;;457.53;422.30;;;13.10;99.90;;;;;;4195131;28;20267;-72
2022/08/25 03:00:55;;;;;;;565.63;521.03;;;13.10;99.90;;;;;;4195172;28;20168;-71
2022/08/25 03:02:55;;;;;;;171.40;160.67;;;13.10;99.90;;;;;;4176698;28;20193;-72
2022/08/25 03:04:56;;;;;;;240.50;226.40;;;13.00;99.90;;;;;;4195134;28;20234;-71
2022/08/25 03:06:58;;;;;;;196.53;185.60;;;13.00;99.90;;;;;;4194676;28;20200;-71
2022/08/25 03:08:58;;;;;;;244.03;229.53;;;13.00;99.90;;;;;;4195164;28;20235;-72
2022/08/25 03:10:59;;;;;;;358.70;331.70;;;13.00;99.90;;;;;;4195352;28;20186;-71
2022/08/25 03:13:00;;;;;;;226.97;209.63;;;13.00;99.90;;;;;;4194376;28;20299;-71
2022/08/25 03:15:01;;;;;;;326.83;308.63;;;13.00;99.90;;;;;;4195295;28;20311;-71
2022/08/25 03:17:01;;;;;;;489.13;456.73;;;13.00;99.90;;;;;;4195119;28;20242;-72
2022/08/25 03:19:02;;;;;;;389.77;356.70;;;13.00;99.90;;;;;;4195640;28;20192;-72
2022/08/25 03:21:03;;;;;;;367.73;345.80;;;13.00;99.90;;;;;;4195398;28;20183;-72
2022/08/25 03:23:05;;;;;;;459.10;420.50;;;13.00;99.90;;;;;;4194483;28;20555;-72
2022/08/25 03:27:29;;;;;;;467.03;436.60;;;12.90;99.90;;;;;;4195334;28;20204;-71
2022/08/25 03:29:31;;;;;;;97.70;92.07;;;12.90;99.90;;;;;;4196536;28;20183;-71
2022/08/25 03:31:33;;;;;;;148.87;140.20;;;12.90;99.90;;;;;;4198103;28;20184;-70
2022/08/25 03:33:35;;;;;;;112.83;106.40;;;12.80;99.90;;;;;;4197668;28;20184;-70
2022/08/25 03:35:36;;;;;;;147.10;138.20;;;12.80;99.90;;;;;;4198274;28;20202;-70
2022/08/25 03:37:37;;;;;;;108.00;101.90;;;12.80;99.90;;;;;;4198119;28;20184;-71
2022/08/25 03:39:38;;;;;;;145.57;137.57;;;12.80;99.90;;;;;;4197907;28;20245;-70
2022/08/25 03:41:39;;;;;;;139.60;130.73;;;12.80;99.90;;;;;;4198034;28;20188;-70
2022/08/25 03:43:40;;;;;;;335.83;310.47;;;12.80;99.90;;;;;;4197437;28;20187;-70
2022/08/25 03:45:41;;;;;;;183.93;171.80;;;12.80;99.90;;;;;;4179775;28;20235;-70
2022/08/25 03:47:48;;;;;;;176.03;166.00;;;12.70;99.90;;;;;;4180230;28;20668;-70
2022/08/25 03:49:48;;;;;;;179.60;168.20;;;12.70;99.90;;;;;;4197831;28;20171;-70
2022/08/25 03:51:52;;;;;;;434.27;409.27;;;12.80;99.90;;;;;;4197485;28;20942;-70
2022/08/25 03:53:53;;;;;;;198.03;186.33;;;12.80;99.90;;;;;;4197009;28;20175;-71
2022/08/25 03:55:54;;;;;;;148.43;137.83;;;12.80;99.90;;;;;;4179810;28;20648;-71
2022/08/25 03:57:54;;;;;;;128.27;121.23;;;12.80;99.90;;;;;;4197726;28;20229;-71
2022/08/25 03:59:55;;;;;;;294.13;276.17;;;12.80;99.90;;;;;;4179620;28;20192;-71
2022/08/25 04:01:56;;;;;;;212.50;196.77;;;12.80;99.90;;;;;;4197362;28;20188;-71
2022/08/25 04:03:56;;;;;;;187.07;174.33;;;12.80;99.90;;;;;;4196573;28;20562;-71
2022/08/25 04:06:04;;;;;;;125.67;118.53;;;12.80;99.90;;;;;;4197498;28;20563;-71
2022/08/25 04:08:05;;;;;;;382.50;353.93;;;12.80;99.90;;;;;;4197286;28;20194;-71
2022/08/25 04:10:08;;;;;;;278.07;258.50;;;12.70;99.90;;;;;;4197107;28;20179;-71
2022/08/25 04:12:09;;;;;;;231.70;216.37;;;12.70;99.90;;;;;;4196873;28;20203;-71
2022/08/25 04:14:10;;;;;;;298.17;280.17;;;12.60;99.90;;;;;;4196616;28;20202;-71
2022/08/25 04:16:23;;;;;;;121.37;114.50;;;12.70;99.90;;;;;;4197191;28;20176;-71
2022/08/25 04:18:23;;;;;;;60.00;56.67;;;12.70;99.90;;;;;;4197178;28;20202;-71
2022/08/25 04:20:24;;;;;;;118.20;111.67;;;12.70;99.90;;;;;;4197185;28;20176;-71
2022/08/25 04:22:24;;;;;;;176.10;166.13;;;12.70;99.90;;;;;;4197179;28;20201;-71
2022/08/25 04:24:25;;;;;;;327.40;306.47;;;12.60;99.90;;;;;;4196948;28;20206;-71
2022/08/25 04:26:25;;;;;;;281.47;261.43;;;12.60;99.90;;;;;;4197284;28;20183;-71
2022/08/25 04:28:26;;;;;;;117.07;110.57;;;12.60;99.90;;;;;;4179191;28;20652;-71
2022/08/25 04:30:27;;;;;;;254.53;237.37;;;12.60;99.90;;;;;;4197055;28;20184;-71
2022/08/25 04:32:27;;;;;;;174.63;163.83;;;12.60;99.90;;;;;;4196936;28;20223;-71
2022/08/25 04:34:28;;;;;;;161.10;152.07;;;12.60;99.90;;;;;;4196171;28;20208;-71
2022/08/25 04:36:29;;;;;;;281.33;262.40;;;12.60;99.90;;;;;;4179149;28;20192;-71
2022/08/25 04:38:31;;;;;;;128.20;121.30;;;12.60;99.90;;;;;;4178969;28;20304;-71
2022/08/25 04:40:31;;;;;;;190.10;178.10;;;12.60;99.90;;;;;;4195226;28;20188;-71
2022/08/25 04:42:33;;;;;;;194.60;183.67;;;12.60;99.90;;;;;;4196804;28;20210;-71
2022/08/25 04:44:33;;;;;;;298.67;277.77;;;12.60;99.90;;;;;;4178019;28;20220;-71
2022/08/25 04:46:34;;;;;;;128.37;121.00;;;12.60;99.90;;;;;;4196765;28;20190;-71
2022/08/25 04:48:35;;;;;;;269.47;247.70;;;12.60;99.90;;;;;;4187331;28;20266;-72
2022/08/25 04:50:38;;;;;;;156.93;148.10;;;12.70;99.90;;;;;;4196471;28;20195;-71
2022/08/25 04:52:38;;;;;;;122.87;116.10;;;12.70;99.90;;;;;;4178603;28;20322;-71
2022/08/25 04:54:39;;;;;;;98.77;93.30;;;12.70;99.90;;;;;;4177989;28;20204;-71
2022/08/25 04:56:40;;;;;;;158.17;149.20;;;12.80;99.90;;;;;;4195196;28;20245;-71
2022/08/25 04:58:41;;;;;;;238.17;180.00;;;12.80;99.90;;;;;;4196563;28;20186;-71
2022/08/25 05:00:42;;;;;;;192.77;164.23;;;12.80;99.90;;;;;;4196524;28;20203;-71
2022/08/25 05:02:43;;;;;;;108.43;102.60;;;12.80;99.90;;;;;;4196078;28;20602;-70
2022/08/25 05:04:43;;;;;;;243.50;229.27;;;12.70;99.90;;;;;;4196070;28;20260;-71
2022/08/25 05:06:45;;;;;;;267.13;252.83;;;12.70;99.90;;;;;;4196454;28;20323;-71
2022/08/25 05:08:45;;;;;;;117.83;111.43;;;12.70;99.90;;;;;;4196367;28;20183;-71
2022/08/25 05:10:46;;;;;;;171.80;161.67;;;12.70;99.90;;;;;;4196424;28;20186;-71
2022/08/25 05:12:47;;;;;;;164.10;154.97;;;12.80;99.90;;;;;;4195607;28;20215;-71
2022/08/25 05:14:50;;;;;;;236.77;223.20;;;12.80;99.90;;;;;;4196327;28;20192;-71
2022/08/25 05:16:51;;;;;;;358.33;327.40;;;12.80;99.90;;;;;;4196298;28;20206;-75
2022/08/25 05:18:52;;;;;;;347.67;318.57;;;12.90;99.90;;;;;;4196246;28;20807;-70
2022/08/25 05:20:54;;;;;;;179.23;169.07;;;13.00;99.90;;;;;;4196211;28;20185;-71
2022/08/25 05:22:55;;;;;;;182.73;172.23;;;13.00;99.90;;;;;;4195529;28;20189;-71
2022/08/25 05:24:56;;;;;;;190.90;179.17;;;13.10;99.90;;;;;;4195984;28;20234;-71
2022/08/25 05:26:57;;;;;;;238.87;225.20;;;13.10;99.90;;;;;;4196070;28;20192;-72
2022/08/25 05:29:00;;;;;;;141.33;132.43;;;13.00;99.90;;;;;;4196263;28;20184;-70
2022/08/25 05:31:03;;;;;;;264.77;250.70;;;13.10;99.90;;;;;;4196069;28;20191;-71
2022/08/25 05:33:04;;;;;;;204.77;193.77;;;13.10;99.90;;;;;;4195339;28;20709;-71
2022/08/25 05:35:06;;;;;;;237.83;225.10;;;13.20;99.90;;;;;;4196227;28;20207;-71
2022/08/25 05:37:07;;;;;;;257.47;243.77;;;13.20;99.90;;;;;;4196013;28;20602;-71
2022/08/25 05:39:07;;;;;;;255.60;241.70;;;13.20;99.90;;;;;;4195988;28;20255;-70
2022/08/25 05:41:12;;;;;;;229.17;216.63;;;13.20;99.90;;;;;;4195989;28;20604;-70
2022/08/25 05:43:14;;;;;;;250.40;236.17;;;13.20;99.90;;;;;;4195215;28;20207;-71
2022/08/25 05:45:14;;;;;;;273.37;257.73;;;13.30;99.90;;;;;;4195764;28;20656;-70
2022/08/25 05:47:15;;;;;;;319.70;300.90;;;13.30;99.90;;;;;;4195802;28;20179;-70
2022/08/25 05:49:16;;;;;;;302.40;282.57;;;13.30;99.90;;;;;;4195917;28;20191;-70
2022/08/25 05:51:18;;;;;;;287.43;271.00;;;13.40;99.90;;;;;;4195528;28;20660;-70
2022/08/25 05:53:20;;;;;;;310.03;292.93;;;13.40;99.90;;;;;;4194749;28;20211;-70
2022/08/25 05:55:20;;;;;;;251.20;237.53;;;13.40;99.90;;;;;;4195707;28;20199;-70
2022/08/25 05:57:21;;;;;;;390.93;368.53;;;13.50;99.90;;;;;;4177910;28;20889;-70
2022/08/25 05:59:22;;;;;;;369.63;347.53;;;13.50;99.90;;;;;;4195240;28;20270;-71
2022/08/25 06:03:46;;;;;;;254.90;238.00;;;13.70;99.90;;;;;;4195188;28;20179;-70
2022/08/25 06:05:47;;;;;;;387.60;364.47;;;13.80;99.90;;;;;;4195771;28;20632;-71
2022/08/25 06:07:50;;;;;;;558.80;514.47;;;13.80;99.90;;;;;;4177552;28;20226;-70
2022/08/25 06:09:51;;;;;;;463.90;427.30;;;13.80;99.90;;;;;;4177479;28;20215;-70
2022/08/25 06:11:52;;;;;;;497.10;457.83;;;13.90;99.90;;;;;;4195280;28;20207;-71
2022/08/25 06:13:52;;;;;;;426.83;398.80;;;14.00;99.90;;;;;;4194846;28;20191;-71
2022/08/25 06:15:59;;;;;;;518.47;470.23;;;14.00;99.90;;;;;;4195743;28;20175;-71
2022/08/25 06:18:01;;;;;;;617.83;392.80;;;14.10;99.90;;;;;;4195697;28;20172;-71
2022/08/25 06:20:04;;;;;;;668.23;599.77;;;14.20;99.90;;;;;;4195580;28;20180;-71
2022/08/25 06:22:05;;;;;;;744.63;540.53;;;14.30;99.90;;;;;;4195572;28;20223;-71
2022/08/25 06:24:07;;;;;;;694.87;447.50;;;14.40;99.90;;;;;;4194810;28;20680;-71
2022/08/25 06:26:12;;;;;;;506.23;469.37;;;14.50;99.90;;;;;;4195575;28;20321;-71
2022/08/25 06:28:12;;;;;;;649.17;584.03;;;14.40;99.90;;;;;;4195654;28;20265;-71
2022/08/25 06:30:16;;;;;;;462.03;429.23;;;14.50;99.90;;;;;;4195339;28;20549;-70
2022/08/25 06:32:17;;;;;;;611.67;550.23;;;14.50;99.90;;;;;;4195346;28;20223;-71
2022/08/25 06:34:18;;;;;;;418.30;385.00;;;14.60;99.90;;;;;;4194913;28;20210;-71
2022/08/25 06:36:19;;;;;;;870.60;430.07;;;14.60;99.90;;;;;;4195552;28;20541;-71
2022/08/25 06:38:19;;;;;;;1370.67;686.00;;;14.60;99.90;;;;;;4195492;28;20180;-71
2022/08/25 06:40:20;;;;;;;692.13;619.73;;;14.70;99.90;;;;;;4195428;28;20182;-71
2022/08/25 06:42:21;;;;;;;575.07;519.00;;;14.70;99.90;;;;;;4195377;28;20183;-71
2022/08/25 06:44:23;;;;;;;603.27;539.67;;;14.80;99.90;;;;;;4194675;28;20215;-71
2022/08/25 06:46:25;;;;;;;455.57;420.03;;;14.90;99.90;;;;;;4195454;28;20679;-71
2022/08/25 06:48:26;;;;;;;809.07;636.03;;;15.10;99.90;;;;;;4195481;28;20191;-71
2022/08/25 06:50:27;;;;;;;673.70;605.57;;;15.10;99.90;;;;;;4195457;28;20183;-71
2022/08/25 06:52:27;;;;;;;1489.77;638.70;;;15.20;99.90;;;;;;4195326;28;20223;-71
2022/08/25 06:54:28;;;;;;;987.37;623.20;;;15.30;99.90;;;;;;4194776;28;20203;-71
2022/08/25 06:56:28;;;;;;;1252.57;579.30;;;15.40;99.90;;;;;;4195556;28;20203;-71
2022/08/25 06:58:30;;;;;;;1639.33;793.97;;;15.50;99.90;;;;;;4195445;28;20178;-71
2022/08/25 07:00:31;;;;;;;1666.77;759.53;;;15.60;99.90;;;;;;4193403;28;20182;-71
2022/08/25 07:02:32;;;;;;;1999.90;988.70;;;15.60;99.90;;;;;;4177265;28;20283;-71
2022/08/25 07:04:33;;;;;;;698.63;435.60;;;15.70;99.90;;;;;;4197813;28;20195;-71
2022/08/25 07:06:34;;;;;;;1844.93;795.30;;;15.80;99.90;;;;;;4198516;28;20228;-71
2022/08/25 07:08:36;;;;;;;1999.90;682.73;;;15.90;99.90;;;;;;4198273;28;20259;-71
2022/08/25 07:10:36;;;;;;;1999.90;995.17;;;16.00;99.90;;;;;;4198542;28;20274;-71
2022/08/25 07:12:37;;;;;;;1052.67;475.73;;;16.20;99.90;;;;;;4180297;28;20692;-71
2022/08/25 07:14:38;;;;;;;1305.00;668.93;;;16.40;99.90;;;;;;4197898;28;20191;-71
2022/08/25 07:16:39;;;;;;;1999.90;641.77;;;16.60;99.90;;;;;;4198575;28;20186;-72
2022/08/25 07:18:40;;;;;;;1999.90;975.40;;;16.80;99.90;;;;;;4198277;28;20639;-71
2022/08/25 07:20:41;;;;;;;1982.27;678.70;;;16.80;99.90;;;;;;4198206;28;20170;-71
2022/08/25 07:22:42;;;;;;;1408.23;607.40;;;17.10;99.90;;;;;;4197977;28;20187;-71
2022/08/25 07:24:43;;;;;;;1425.03;757.43;;;17.30;99.90;;;;;;4197836;28;20697;-71
2022/08/25 07:26:45;;;;;;;1728.03;840.77;;;17.30;99.90;;;;;;4198064;28;20522;-71
2022/08/25 07:28:46;;;;;;;1999.90;961.83;;;17.30;99.90;;;;;;4195095;28;20187;-71
2022/08/25 07:30:48;;;;;;;1999.90;841.37;;;17.20;99.90;;;;;;4164407;28;20185;-71
2022/08/25 07:32:48;;;;;;;1999.90;741.73;;;17.30;99.90;;;;;;4197252;28;20200;-71
2022/08/25 07:37:09;;;;;;;1987.57;772.00;;;17.50;99.30;;;;;;4198204;28;20233;-71
2022/08/25 07:39:10;;;;;;;1999.90;604.70;;;17.70;98.40;;;;;;4180197;28;20263;-70
2022/08/25 07:41:10;;;;;;;1999.90;710.17;;;18.00;96.50;;;;;;4197933;28;20191;-71
2022/08/25 07:43:11;;;;;;;1999.90;528.77;;;18.10;95.60;;;;;;4197349;28;20176;-70
2022/08/25 07:45:12;;;;;;;1670.53;358.47;;;18.30;94.90;;;;;;4197724;28;20337;-70
2022/08/25 07:47:14;;;;;;;1999.90;662.80;;;18.40;94.00;;;;;;4197832;28;20856;-71
2022/08/25 07:49:17;;;;;;;1999.90;640.50;;;18.40;94.00;;;;;;4163897;28;20696;-72
2022/08/25 07:51:18;;;;;;;1999.90;548.70;;;18.60;94.20;;;;;;4197789;28;20214;-71
2022/08/25 07:53:19;;;;;;;1341.73;553.77;;;18.80;93.10;;;;;;4179421;28;20216;-71
2022/08/25 07:55:20;;;;;;;774.67;552.77;;;18.90;93.30;;;;;;4197723;28;20203;-71
2022/08/25 07:57:22;;;;;;;1937.83;553.77;;;19.20;91.10;;;;;;4179841;28;20180;-70
2022/08/25 07:59:23;;;;;;;1999.90;492.30;;;19.30;91.20;;;;;;4197808;28;20536;-71
2022/08/25 08:01:25;;;;;;;1428.40;661.47;;;19.40;91.10;;;;;;4197683;28;20237;-71
2022/08/25 08:03:25;;;;;;;1362.20;323.93;;;19.60;90.20;;;;;;4179289;28;20276;-71
2022/08/25 08:05:27;;;;;;;1999.90;542.10;;;19.70;87.30;;;;;;4197493;28;20676;-71
2022/08/25 08:07:28;;;;;;;1263.43;416.17;;;19.70;86.50;;;;;;4197508;28;20625;-71
2022/08/25 08:09:32;;;;;;;692.77;388.07;;;19.90;87.00;;;;;;4179275;28;20192;-70
2022/08/25 08:11:39;;;;;;;1500.50;500.20;;;20.00;84.40;;;;;;4197439;28;20183;-70
2022/08/25 08:13:40;;;;;;;1999.90;651.43;;;20.20;85.30;;;;;;4179539;28;20171;-71
2022/08/25 08:15:42;;;;;;;1999.90;604.83;;;20.30;82.30;;;;;;4197063;28;20200;-71
2022/08/25 08:17:43;;;;;;;1338.03;488.10;;;20.30;79.80;;;;;;4179862;28;20184;-71
2022/08/25 08:19:44;;;;;;;1999.90;650.07;;;20.50;78.10;;;;;;4179603;28;20172;-71
2022/08/25 08:21:45;;;;;;;1999.90;554.47;;;20.50;79.30;;;;;;4179588;28;20185;-71
2022/08/25 08:23:47;;;;;;;1961.47;748.00;;;20.70;78.50;;;;;;4178650;28;20184;-70
2022/08/25 08:25:48;;;;;;;1999.90;658.30;;;20.70;77.00;;;;;;4179547;28;20229;-71
2022/08/25 08:27:49;;;;;;;1999.90;574.43;;;20.80;76.80;;;;;;4179554;28;20180;-70
2022/08/25 08:29:51;;;;;;;1999.90;696.97;;;20.90;74.70;;;;;;4197113;28;20214;-70
2022/08/25 08:31:52;;;;;;;1999.90;634.83;;;20.80;73.80;;;;;;4197172;28;20313;-72
2022/08/25 08:33:54;;;;;;;1999.90;721.73;;;20.70;73.40;;;;;;4196293;28;20646;-71
2022/08/25 08:36:04;;;;;;;1999.90;820.27;;;20.70;73.70;;;;;;4196741;28;20180;-72
2022/08/25 08:38:05;;;;;;;1999.90;636.20;;;20.90;72.90;;;;;;4179322;28;20259;-71
2022/08/25 08:40:08;;;;;;;1999.90;571.90;;;20.90;74.10;;;;;;4179148;28;20195;-71
2022/08/25 08:42:30;;;;;;;1806.23;354.07;;;21.10;72.40;;;;;;4162573;28;20189;-71
2022/08/25 08:45:14;;;;;;;1955.90;540.07;;;21.10;70.60;;;;;;4196469;28;20290;-71
2022/08/25 08:47:54;;;;;;;1999.90;522.73;;;21.10;71.20;;;;;;4179029;28;20737;-72
2022/08/25 08:50:32;;;;;;;1999.90;587.33;;;21.40;69.40;;;;;;4196791;28;20203;-71
2022/08/25 08:52:47;;;;;;;1999.90;674.03;;;21.40;69.80;;;;;;4196659;28;20203;-71
2022/08/25 08:54:57;;;;;;;1186.90;534.60;;;21.70;67.90;;;;;;4162336;28;20197;-72
2022/08/25 08:57:09;;;;;;;1957.47;468.50;;;21.70;67.50;;;;;;4179007;28;20188;-71
2022/08/25 08:59:21;;;;;;;1826.50;911.17;;;21.90;65.60;;;;;;4160456;28;20248;-71
2022/08/25 09:01:43;;;;;;;1999.90;446.57;;;22.20;64.20;;;;;;4185266;28;20196;-71
2022/08/25 09:03:51;;;;;;;1999.90;667.03;;;22.20;64.80;;;;;;4190207;28;20187;-71
2022/08/25 09:05:55;;;;;;;1999.90;673.47;;;22.10;64.50;;;;;;4182225;28;20184;-73
2022/08/25 09:08:00;;;;;;;1898.60;767.30;;;22.20;65.60;;;;;;4190960;28;20605;-72
2022/08/25 09:10:01;;;;;;;1999.90;996.80;;;22.50;65.50;;;;;;4180838;28;20184;-73
2022/08/25 09:12:40;;;;;;;1999.90;647.93;;;22.80;65.70;;;;;;4195737;28;20256;-72
2022/08/25 09:16:53;;;;;;;1739.03;612.47;;;22.90;61.90;;;;;;4194709;28;20199;-72
2022/08/25 09:18:08;;;;;;;1926.17;786.77;;;23.10;60.50;;;;;;4195729;28;20203;-72
2022/08/25 09:20:29;;;;;;;1438.93;531.93;;;23.20;59.10;;;;;;4185226;28;20210;-71
2022/08/25 09:22:35;;;;;;;1999.90;915.97;;;23.20;58.70;;;;;;4195930;28;20235;-72
2022/08/25 09:24:56;;;;;;;1337.67;757.90;;;23.10;58.00;;;;;;4192006;28;20199;-72
2022/08/25 09:27:18;;;;;;;1999.90;492.13;;;23.30;58.60;;;;;;4182218;28;20178;-74
2022/08/25 09:29:26;;;;;;;1999.90;588.57;;;23.10;56.90;;;;;;4195883;28;20194;-72
2022/08/25 09:31:37;;;;;;;696.97;490.77;;;23.20;57.10;;;;;;4186382;28;20226;-74
2022/08/25 09:33:38;;;;;;;1999.90;598.30;;;23.40;56.90;;;;;;4195314;28;20183;-73
2022/08/25 09:35:40;;;;;;;1999.90;592.80;;;23.70;56.60;;;;;;4188712;28;20204;-72
2022/08/25 09:37:41;;;;;;;1488.33;450.27;;;23.70;54.60;;;;;;4166746;28;20189;-72
2022/08/25 09:39:42;;;;;;;1999.90;580.00;;;23.80;53.10;;;;;;4195717;28;20275;-75
2022/08/25 09:41:56;;;;;;;1994.60;521.13;;;23.80;54.20;;;;;;4195610;28;20184;-71
2022/08/25 09:43:56;;;;;;;1999.90;525.93;;;23.90;52.80;;;;;;4190442;28;20235;-74
2022/08/25 09:46:14;;;;;;;1510.43;619.20;;;24.30;51.50;;;;;;4195795;28;20176;-71
2022/08/25 09:48:48;;;;;;;1999.90;522.70;;;24.80;50.90;;;;;;4195548;28;20176;-73
2022/08/25 09:50:57;;;;;;;1626.23;429.83;;;24.70;49.20;;;;;;4168922;28;20573;-71
2022/08/25 09:53:13;;;;;;;1999.90;507.87;;;24.90;48.40;;;;;;4188292;28;20203;-75
2022/08/25 09:55:22;;;;;;;1999.90;491.40;;;25.10;48.70;;;;;;4184763;28;20992;-71
2022/08/25 09:57:42;;;;;;;1730.37;427.53;;;25.10;47.60;;;;;;4185371;28;20191;-72
2022/08/25 09:59:45;;;;;;;985.60;250.53;;;25.40;47.20;;;;;;4194514;28;20175;-72
2022/08/25 10:01:56;;;;;;;1999.90;503.73;;;25.20;46.90;;;;;;4195091;28;20249;-71
2022/08/25 10:04:00;;;;;;;1608.83;416.63;;;25.10;46.40;;;;;;4190022;28;20263;-72
2022/08/25 10:06:12;;;;;;;1999.90;764.77;;;25.20;46.90;;;;;;4194496;28;20254;-71
2022/08/25 10:08:31;;;;;;;413.87;290.67;;;25.40;44.90;;;;;;4176467;28;20203;-74
2022/08/25 10:10:37;;;;;;;1999.90;932.00;;;25.70;45.10;;;;;;4195275;28;20256;-74
2022/08/25 10:12:42;;;;;;;1696.73;372.03;;;25.80;45.00;;;;;;4184723;28;20699;-75
2022/08/25 10:14:43;;;;;;;1388.50;546.13;;;25.70;46.10;;;;;;4189882;28;20550;-74
2022/08/25 10:16:46;;;;;;;1667.90;363.97;;;26.10;44.80;;;;;;4180380;28;20186;-71